KLDM

Mason County Airport

Ludington, Michigan, USA
METAR KLDM 191515Z AUTO 24004KT 10SM SCT023 23/17 A3001 RMK AO2 T02310174
Observed Flight Rules
Aug-19 @ 15:15 UTC (23 minutes ago) Visual Flight Rules
Wind Visibility Clouds
240° at 4 knots 10 miles
  • Scattered at 2,300' AGL
Temperatures Readings
Current 23°C / 73°F
Dewpoint 17°C / 63°F
Humidity 69%
Altimeter 30.01" Hg
Pressure 1016 hPa
Elevation 197
METAR KLDM 191515Z AUTO 24004KT 10SM SCT023 23/17 A3001 RMK AO2 T02310174
Observed Flight Rules
Aug-19 @ 15:15 UTC
(23 minutes ago)
VFR
Wind Visibility
240° at 4 knots 10 miles
Clouds
  • Scattered at 2,300' AGL
Temperature Dewpoint
23°C / 73°F 17°C / 63°F
Humidity Altimeter Pressure
69% 30.01" Hg 1016 hPa